sensor_id;sensor_type;location;lat;lon;timestamp;P1;durP1;ratioP1;P2;durP2;ratioP2
22201;SDS011;11266;51.522;6.302;2022-12-18T00:00:18;19.38;;;11.05;;
22201;SDS011;11266;51.522;6.302;2022-12-18T00:01:05;21.88;;;12.00;;
22201;SDS011;11266;51.522;6.302;2022-12-18T00:01:51;21.13;;;11.15;;
22201;SDS011;11266;51.522;6.302;2022-12-18T00:02:37;21.27;;;12.02;;
22201;SDS011;11266;51.522;6.302;2022-12-18T00:03:23;21.35;;;11.88;;
22201;SDS011;11266;51.522;6.302;2022-12-18T00:04:18;20.25;;;11.65;;
22201;SDS011;11266;51.522;6.302;2022-12-18T00:05:05;20.55;;;10.23;;
22201;SDS011;11266;51.522;6.302;2022-12-18T00:05:52;22.42;;;10.85;;
22201;SDS011;11266;51.522;6.302;2022-12-18T00:06:38;24.88;;;11.82;;
22201;SDS011;11266;51.522;6.302;2022-12-18T00:07:24;22.15;;;12.15;;
22201;SDS011;11266;51.522;6.302;2022-12-18T00:08:10;18.88;;;10.80;;
22201;SDS011;11266;51.522;6.302;2022-12-18T00:08:56;21.83;;;12.00;;
22201;SDS011;11266;51.522;6.302;2022-12-18T00:09:43;20.45;;;10.90;;
22201;SDS011;11266;51.522;6.302;2022-12-18T00:10:29;19.67;;;10.75;;
22201;SDS011;11266;51.522;6.302;2022-12-18T00:11:16;21.63;;;11.77;;
22201;SDS011;11266;51.522;6.302;2022-12-18T00:12:02;20.03;;;11.37;;
22201;SDS011;11266;51.522;6.302;2022-12-18T00:12:48;21.17;;;11.85;;
22201;SDS011;11266;51.522;6.302;2022-12-18T00:13:34;20.25;;;11.27;;
22201;SDS011;11266;51.522;6.302;2022-12-18T00:14:20;22.00;;;12.20;;
22201;SDS011;11266;51.522;6.302;2022-12-18T00:15:06;19.47;;;10.87;;
22201;SDS011;11266;51.522;6.302;2022-12-18T00:15:52;21.40;;;11.50;;
22201;SDS011;11266;51.522;6.302;2022-12-18T00:16:38;20.60;;;11.50;;
22201;SDS011;11266;51.522;6.302;2022-12-18T00:17:25;20.30;;;11.10;;
22201;SDS011;11266;51.522;6.302;2022-12-18T00:18:11;19.20;;;10.57;;
22201;SDS011;11266;51.522;6.302;2022-12-18T00:18:59;23.37;;;12.93;;
22201;SDS011;11266;51.522;6.302;2022-12-18T00:19:45;21.97;;;11.10;;
22201;SDS011;11266;51.522;6.302;2022-12-18T00:20:35;20.77;;;11.47;;
22201;SDS011;11266;51.522;6.302;2022-12-18T00:21:21;21.13;;;10.77;;
22201;SDS011;11266;51.522;6.302;2022-12-18T00:22:07;21.73;;;11.88;;
22201;SDS011;11266;51.522;6.302;2022-12-18T00:22:53;22.40;;;12.15;;
22201;SDS011;11266;51.522;6.302;2022-12-18T00:23:40;17.92;;;10.23;;
22201;SDS011;11266;51.522;6.302;2022-12-18T00:24:26;19.00;;;10.65;;
22201;SDS011;11266;51.522;6.302;2022-12-18T00:25:12;19.02;;;10.85;;
22201;SDS011;11266;51.522;6.302;2022-12-18T00:26:02;19.23;;;10.30;;
22201;SDS011;11266;51.522;6.302;2022-12-18T00:26:48;20.33;;;11.02;;
22201;SDS011;11266;51.522;6.302;2022-12-18T00:27:34;22.23;;;11.83;;
22201;SDS011;11266;51.522;6.302;2022-12-18T00:28:20;21.90;;;11.57;;
22201;SDS011;11266;51.522;6.302;2022-12-18T00:29:10;20.67;;;11.85;;
22201;SDS011;11266;51.522;6.302;2022-12-18T00:29:58;19.67;;;11.30;;
22201;SDS011;11266;51.522;6.302;2022-12-18T00:30:44;20.17;;;10.07;;
22201;SDS011;11266;51.522;6.302;2022-12-18T00:31:39;18.27;;;10.60;;
22201;SDS011;11266;51.522;6.302;2022-12-18T00:32:26;21.20;;;10.90;;
22201;SDS011;11266;51.522;6.302;2022-12-18T00:33:12;21.07;;;10.40;;
22201;SDS011;11266;51.522;6.302;2022-12-18T00:33:58;21.10;;;11.40;;
22201;SDS011;11266;51.522;6.302;2022-12-18T00:34:44;19.93;;;10.80;;
22201;SDS011;11266;51.522;6.302;2022-12-18T00:35:30;21.45;;;10.90;;
22201;SDS011;11266;51.522;6.302;2022-12-18T00:36:19;17.73;;;9.63;;
22201;SDS011;11266;51.522;6.302;2022-12-18T00:37:05;20.00;;;10.45;;
22201;SDS011;11266;51.522;6.302;2022-12-18T00:37:51;19.33;;;10.25;;
22201;SDS011;11266;51.522;6.302;2022-12-18T00:38:37;17.60;;;9.77;;
22201;SDS011;11266;51.522;6.302;2022-12-18T00:39:23;16.88;;;9.05;;
22201;SDS011;11266;51.522;6.302;2022-12-18T00:40:09;18.92;;;10.48;;
22201;SDS011;11266;51.522;6.302;2022-12-18T00:40:55;17.73;;;10.07;;
22201;SDS011;11266;51.522;6.302;2022-12-18T00:41:41;16.13;;;10.03;;
22201;SDS011;11266;51.522;6.302;2022-12-18T00:42:46;22.87;;;10.00;;
22201;SDS011;11266;51.522;6.302;2022-12-18T00:43:44;15.98;;;8.85;;
22201;SDS011;11266;51.522;6.302;2022-12-18T00:44:30;16.77;;;9.57;;
22201;SDS011;11266;51.522;6.302;2022-12-18T00:45:15;17.77;;;9.43;;
22201;SDS011;11266;51.522;6.302;2022-12-18T00:46:01;19.42;;;9.50;;
22201;SDS011;11266;51.522;6.302;2022-12-18T00:46:48;17.73;;;9.50;;
22201;SDS011;11266;51.522;6.302;2022-12-18T00:47:36;18.35;;;9.95;;
22201;SDS011;11266;51.522;6.302;2022-12-18T00:48:22;19.55;;;11.35;;
22201;SDS011;11266;51.522;6.302;2022-12-18T00:49:17;18.97;;;10.90;;
22201;SDS011;11266;51.522;6.302;2022-12-18T00:50:06;18.77;;;9.50;;
22201;SDS011;11266;51.522;6.302;2022-12-18T00:50:53;18.23;;;10.00;;
22201;SDS011;11266;51.522;6.302;2022-12-18T00:51:39;17.13;;;9.43;;
22201;SDS011;11266;51.522;6.302;2022-12-18T00:52:25;14.70;;;8.97;;
22201;SDS011;11266;51.522;6.302;2022-12-18T00:53:11;17.10;;;9.48;;
22201;SDS011;11266;51.522;6.302;2022-12-18T00:53:57;17.67;;;9.65;;
22201;SDS011;11266;51.522;6.302;2022-12-18T00:54:43;17.83;;;10.13;;
22201;SDS011;11266;51.522;6.302;2022-12-18T00:55:29;18.58;;;10.02;;
22201;SDS011;11266;51.522;6.302;2022-12-18T00:56:15;15.82;;;8.95;;
22201;SDS011;11266;51.522;6.302;2022-12-18T00:57:01;19.95;;;10.10;;
22201;SDS011;11266;51.522;6.302;2022-12-18T00:57:47;18.45;;;9.27;;
22201;SDS011;11266;51.522;6.302;2022-12-18T00:58:36;16.70;;;9.38;;
22201;SDS011;11266;51.522;6.302;2022-12-18T00:59:22;16.75;;;8.85;;
22201;SDS011;11266;51.522;6.302;2022-12-18T01:00:09;18.10;;;9.75;;
22201;SDS011;11266;51.522;6.302;2022-12-18T01:00:56;17.45;;;9.65;;
22201;SDS011;11266;51.522;6.302;2022-12-18T01:01:42;17.13;;;9.10;;
22201;SDS011;11266;51.522;6.302;2022-12-18T01:02:28;14.05;;;8.38;;
22201;SDS011;11266;51.522;6.302;2022-12-18T01:03:14;15.35;;;8.95;;
22201;SDS011;11266;51.522;6.302;2022-12-18T01:04:01;15.48;;;9.02;;
22201;SDS011;11266;51.522;6.302;2022-12-18T01:04:47;16.67;;;8.93;;
22201;SDS011;11266;51.522;6.302;2022-12-18T01:05:33;16.75;;;9.55;;
22201;SDS011;11266;51.522;6.302;2022-12-18T01:06:19;20.43;;;9.80;;
22201;SDS011;11266;51.522;6.302;2022-12-18T01:07:05;17.73;;;9.30;;
22201;SDS011;11266;51.522;6.302;2022-12-18T01:07:51;16.53;;;9.90;;
22201;SDS011;11266;51.522;6.302;2022-12-18T01:08:37;17.70;;;9.27;;
22201;SDS011;11266;51.522;6.302;2022-12-18T01:09:24;16.17;;;8.90;;
22201;SDS011;11266;51.522;6.302;2022-12-18T01:10:10;17.83;;;9.03;;
22201;SDS011;11266;51.522;6.302;2022-12-18T01:10:57;19.27;;;9.70;;
22201;SDS011;11266;51.522;6.302;2022-12-18T01:11:43;16.87;;;9.17;;
22201;SDS011;11266;51.522;6.302;2022-12-18T01:12:29;16.83;;;9.18;;
22201;SDS011;11266;51.522;6.302;2022-12-18T01:13:15;16.17;;;8.77;;
22201;SDS011;11266;51.522;6.302;2022-12-18T01:14:01;17.90;;;9.80;;
22201;SDS011;11266;51.522;6.302;2022-12-18T01:14:47;18.27;;;9.13;;
22201;SDS011;11266;51.522;6.302;2022-12-18T01:15:33;21.13;;;8.77;;
22201;SDS011;11266;51.522;6.302;2022-12-18T01:16:19;16.23;;;8.60;;
22201;SDS011;11266;51.522;6.302;2022-12-18T01:17:05;14.18;;;8.27;;
22201;SDS011;11266;51.522;6.302;2022-12-18T01:17:54;17.07;;;8.87;;
22201;SDS011;11266;51.522;6.302;2022-12-18T01:18:40;15.97;;;9.20;;
22201;SDS011;11266;51.522;6.302;2022-12-18T01:19:26;24.58;;;9.77;;
22201;SDS011;11266;51.522;6.302;2022-12-18T01:20:12;16.63;;;9.20;;
22201;SDS011;11266;51.522;6.302;2022-12-18T01:20:58;17.30;;;9.20;;
22201;SDS011;11266;51.522;6.302;2022-12-18T01:21:44;17.93;;;8.93;;
22201;SDS011;11266;51.522;6.302;2022-12-18T01:22:33;16.40;;;8.60;;
22201;SDS011;11266;51.522;6.302;2022-12-18T01:23:19;16.23;;;9.07;;
22201;SDS011;11266;51.522;6.302;2022-12-18T01:24:05;16.13;;;8.60;;
22201;SDS011;11266;51.522;6.302;2022-12-18T01:24:51;15.17;;;8.27;;
22201;SDS011;11266;51.522;6.302;2022-12-18T01:25:37;16.33;;;8.50;;
22201;SDS011;11266;51.522;6.302;2022-12-18T01:26:24;15.63;;;9.27;;
22201;SDS011;11266;51.522;6.302;2022-12-18T01:27:10;17.33;;;9.23;;
22201;SDS011;11266;51.522;6.302;2022-12-18T01:27:56;16.50;;;8.95;;
22201;SDS011;11266;51.522;6.302;2022-12-18T01:28:42;14.37;;;7.90;;
22201;SDS011;11266;51.522;6.302;2022-12-18T01:29:29;14.93;;;7.38;;
22201;SDS011;11266;51.522;6.302;2022-12-18T01:30:15;13.05;;;7.60;;
22201;SDS011;11266;51.522;6.302;2022-12-18T01:32:02;13.53;;;7.40;;
22201;SDS011;11266;51.522;6.302;2022-12-18T01:32:48;14.87;;;8.07;;
22201;SDS011;11266;51.522;6.302;2022-12-18T01:33:34;16.47;;;8.83;;
22201;SDS011;11266;51.522;6.302;2022-12-18T01:34:20;15.17;;;8.07;;
22201;SDS011;11266;51.522;6.302;2022-12-18T01:35:06;14.53;;;8.23;;
22201;SDS011;11266;51.522;6.302;2022-12-18T01:35:52;14.67;;;8.53;;
22201;SDS011;11266;51.522;6.302;2022-12-18T01:36:38;15.05;;;8.63;;
22201;SDS011;11266;51.522;6.302;2022-12-18T01:37:24;16.03;;;9.07;;
22201;SDS011;11266;51.522;6.302;2022-12-18T01:38:10;14.97;;;8.70;;
22201;SDS011;11266;51.522;6.302;2022-12-18T01:38:59;14.17;;;8.00;;
22201;SDS011;11266;51.522;6.302;2022-12-18T01:39:46;13.00;;;7.50;;
22201;SDS011;11266;51.522;6.302;2022-12-18T01:40:32;17.92;;;8.82;;
22201;SDS011;11266;51.522;6.302;2022-12-18T01:41:20;15.27;;;8.45;;
22201;SDS011;11266;51.522;6.302;2022-12-18T01:42:13;14.80;;;8.32;;
22201;SDS011;11266;51.522;6.302;2022-12-18T01:43:01;16.42;;;8.18;;
22201;SDS011;11266;51.522;6.302;2022-12-18T01:43:55;17.02;;;8.55;;
22201;SDS011;11266;51.522;6.302;2022-12-18T01:45:46;16.75;;;8.32;;
22201;SDS011;11266;51.522;6.302;2022-12-18T01:46:32;15.00;;;8.30;;
22201;SDS011;11266;51.522;6.302;2022-12-18T01:48:06;14.52;;;8.05;;
22201;SDS011;11266;51.522;6.302;2022-12-18T01:48:57;14.87;;;8.40;;
22201;SDS011;11266;51.522;6.302;2022-12-18T01:49:45;15.67;;;8.77;;
22201;SDS011;11266;51.522;6.302;2022-12-18T01:50:38;16.77;;;8.03;;
22201;SDS011;11266;51.522;6.302;2022-12-18T01:51:24;15.07;;;8.57;;
22201;SDS011;11266;51.522;6.302;2022-12-18T01:52:11;15.27;;;8.43;;
22201;SDS011;11266;51.522;6.302;2022-12-18T01:53:02;14.13;;;8.07;;
22201;SDS011;11266;51.522;6.302;2022-12-18T01:53:49;15.90;;;8.30;;
22201;SDS011;11266;51.522;6.302;2022-12-18T01:54:35;14.80;;;8.33;;
22201;SDS011;11266;51.522;6.302;2022-12-18T01:55:22;18.17;;;8.30;;
22201;SDS011;11266;51.522;6.302;2022-12-18T01:56:11;14.87;;;7.60;;
22201;SDS011;11266;51.522;6.302;2022-12-18T01:56:58;13.90;;;8.17;;
22201;SDS011;11266;51.522;6.302;2022-12-18T01:57:45;15.13;;;8.20;;
22201;SDS011;11266;51.522;6.302;2022-12-18T01:59:18;16.90;;;8.50;;
22201;SDS011;11266;51.522;6.302;2022-12-18T02:00:09;15.95;;;8.52;;
22201;SDS011;11266;51.522;6.302;2022-12-18T02:00:55;15.17;;;8.10;;
22201;SDS011;11266;51.522;6.302;2022-12-18T02:01:41;15.03;;;8.07;;
22201;SDS011;11266;51.522;6.302;2022-12-18T02:02:28;15.10;;;8.13;;
22201;SDS011;11266;51.522;6.302;2022-12-18T02:03:14;14.40;;;8.33;;
22201;SDS011;11266;51.522;6.302;2022-12-18T02:06:04;12.52;;;7.20;;
22201;SDS011;11266;51.522;6.302;2022-12-18T02:06:38;17.73;;;7.77;;
22201;SDS011;11266;51.522;6.302;2022-12-18T02:09:20;14.20;;;7.97;;
22201;SDS011;11266;51.522;6.302;2022-12-18T02:10:18;17.13;;;8.17;;
22201;SDS011;11266;51.522;6.302;2022-12-18T02:12:53;15.47;;;7.77;;
22201;SDS011;11266;51.522;6.302;2022-12-18T02:13:46;16.33;;;8.23;;
22201;SDS011;11266;51.522;6.302;2022-12-18T02:14:40;16.57;;;8.67;;
22201;SDS011;11266;51.522;6.302;2022-12-18T02:17:58;15.23;;;7.87;;
22201;SDS011;11266;51.522;6.302;2022-12-18T02:18:48;15.33;;;7.33;;
22201;SDS011;11266;51.522;6.302;2022-12-18T02:20:43;16.50;;;7.33;;
22201;SDS011;11266;51.522;6.302;2022-12-18T02:24:18;14.97;;;7.70;;
22201;SDS011;11266;51.522;6.302;2022-12-18T02:27:05;17.20;;;8.77;;
22201;SDS011;11266;51.522;6.302;2022-12-18T02:27:52;13.40;;;7.63;;
22201;SDS011;11266;51.522;6.302;2022-12-18T02:28:43;18.50;;;8.83;;
22201;SDS011;11266;51.522;6.302;2022-12-18T02:30:17;15.90;;;8.23;;
22201;SDS011;11266;51.522;6.302;2022-12-18T02:31:04;13.87;;;8.10;;
22201;SDS011;11266;51.522;6.302;2022-12-18T02:31:52;14.93;;;7.87;;
22201;SDS011;11266;51.522;6.302;2022-12-18T02:32:40;17.30;;;8.87;;
22201;SDS011;11266;51.522;6.302;2022-12-18T02:33:29;14.10;;;7.87;;
22201;SDS011;11266;51.522;6.302;2022-12-18T02:34:15;14.87;;;8.23;;
22201;SDS011;11266;51.522;6.302;2022-12-18T02:35:02;18.87;;;8.30;;
22201;SDS011;11266;51.522;6.302;2022-12-18T02:35:49;15.47;;;8.47;;
22201;SDS011;11266;51.522;6.302;2022-12-18T02:36:36;15.63;;;8.80;;
22201;SDS011;11266;51.522;6.302;2022-12-18T02:37:23;17.57;;;8.87;;
22201;SDS011;11266;51.522;6.302;2022-12-18T02:38:10;18.73;;;8.87;;
22201;SDS011;11266;51.522;6.302;2022-12-18T02:38:57;16.17;;;8.40;;
22201;SDS011;11266;51.522;6.302;2022-12-18T02:39:44;17.27;;;8.80;;
22201;SDS011;11266;51.522;6.302;2022-12-18T02:40:32;15.27;;;8.27;;
22201;SDS011;11266;51.522;6.302;2022-12-18T02:41:18;16.37;;;7.93;;
22201;SDS011;11266;51.522;6.302;2022-12-18T02:42:05;13.77;;;8.17;;
22201;SDS011;11266;51.522;6.302;2022-12-18T02:42:52;15.33;;;8.83;;
22201;SDS011;11266;51.522;6.302;2022-12-18T02:43:38;16.07;;;8.47;;
22201;SDS011;11266;51.522;6.302;2022-12-18T02:44:25;16.80;;;8.57;;
22201;SDS011;11266;51.522;6.302;2022-12-18T02:45:11;16.33;;;8.73;;
22201;SDS011;11266;51.522;6.302;2022-12-18T02:45:58;16.30;;;8.83;;
22201;SDS011;11266;51.522;6.302;2022-12-18T02:46:49;16.60;;;8.50;;
22201;SDS011;11266;51.522;6.302;2022-12-18T02:47:36;17.53;;;9.13;;
22201;SDS011;11266;51.522;6.302;2022-12-18T02:48:24;15.67;;;8.53;;
22201;SDS011;11266;51.522;6.302;2022-12-18T02:50:34;16.23;;;7.47;;
22201;SDS011;11266;51.522;6.302;2022-12-18T02:51:27;15.53;;;7.77;;
22201;SDS011;11266;51.522;6.302;2022-12-18T02:53:51;15.80;;;9.63;;
22201;SDS011;11266;51.522;6.302;2022-12-18T02:56:27;21.37;;;9.40;;
22201;SDS011;11266;51.522;6.302;2022-12-18T02:57:17;17.67;;;8.87;;
22201;SDS011;11266;51.522;6.302;2022-12-18T02:59:13;17.73;;;8.20;;
22201;SDS011;11266;51.522;6.302;2022-12-18T03:00:04;16.30;;;9.07;;
22201;SDS011;11266;51.522;6.302;2022-12-18T03:00:53;15.70;;;8.93;;
22201;SDS011;11266;51.522;6.302;2022-12-18T03:03:34;19.03;;;8.80;;
22201;SDS011;11266;51.522;6.302;2022-12-18T03:04:26;15.30;;;7.83;;
22201;SDS011;11266;51.522;6.302;2022-12-18T03:06:05;14.60;;;8.07;;
22201;SDS011;11266;51.522;6.302;2022-12-18T03:06:56;15.80;;;8.47;;
22201;SDS011;11266;51.522;6.302;2022-12-18T03:07:46;15.77;;;8.07;;
22201;SDS011;11266;51.522;6.302;2022-12-18T03:08:36;14.90;;;8.07;;
22201;SDS011;11266;51.522;6.302;2022-12-18T03:09:28;16.37;;;8.33;;
22201;SDS011;11266;51.522;6.302;2022-12-18T03:10:16;16.83;;;7.73;;
22201;SDS011;11266;51.522;6.302;2022-12-18T03:11:05;19.87;;;8.73;;
22201;SDS011;11266;51.522;6.302;2022-12-18T03:11:54;16.10;;;8.47;;
22201;SDS011;11266;51.522;6.302;2022-12-18T03:13:09;18.07;;;8.97;;
22201;SDS011;11266;51.522;6.302;2022-12-18T03:13:57;16.77;;;8.03;;
22201;SDS011;11266;51.522;6.302;2022-12-18T03:14:44;16.17;;;8.00;;
22201;SDS011;11266;51.522;6.302;2022-12-18T03:15:37;17.97;;;8.73;;
22201;SDS011;11266;51.522;6.302;2022-12-18T03:16:25;16.23;;;9.00;;
22201;SDS011;11266;51.522;6.302;2022-12-18T03:17:13;15.43;;;8.83;;
22201;SDS011;11266;51.522;6.302;2022-12-18T03:18:08;15.07;;;8.53;;
22201;SDS011;11266;51.522;6.302;2022-12-18T03:19:00;14.47;;;8.13;;
22201;SDS011;11266;51.522;6.302;2022-12-18T03:19:53;16.43;;;8.67;;
22201;SDS011;11266;51.522;6.302;2022-12-18T03:20:41;15.53;;;8.70;;
22201;SDS011;11266;51.522;6.302;2022-12-18T03:21:29;15.70;;;8.00;;
22201;SDS011;11266;51.522;6.302;2022-12-18T03:22:17;14.60;;;8.80;;
22201;SDS011;11266;51.522;6.302;2022-12-18T03:23:06;14.30;;;7.77;;
22201;SDS011;11266;51.522;6.302;2022-12-18T03:23:53;17.33;;;8.33;;
22201;SDS011;11266;51.522;6.302;2022-12-18T03:24:40;17.20;;;8.27;;
22201;SDS011;11266;51.522;6.302;2022-12-18T03:25:26;16.23;;;8.83;;
22201;SDS011;11266;51.522;6.302;2022-12-18T03:26:14;14.07;;;8.03;;
22201;SDS011;11266;51.522;6.302;2022-12-18T03:27:01;16.93;;;9.00;;
22201;SDS011;11266;51.522;6.302;2022-12-18T03:27:49;15.13;;;8.40;;
22201;SDS011;11266;51.522;6.302;2022-12-18T03:28:38;14.10;;;8.00;;
22201;SDS011;11266;51.522;6.302;2022-12-18T03:29:27;17.10;;;8.83;;
22201;SDS011;11266;51.522;6.302;2022-12-18T03:30:18;17.33;;;8.85;;
22201;SDS011;11266;51.522;6.302;2022-12-18T03:31:04;17.20;;;8.53;;
22201;SDS011;11266;51.522;6.302;2022-12-18T03:31:55;17.63;;;8.30;;
22201;SDS011;11266;51.522;6.302;2022-12-18T03:32:50;16.17;;;8.87;;
22201;SDS011;11266;51.522;6.302;2022-12-18T03:33:40;18.57;;;9.17;;
22201;SDS011;11266;51.522;6.302;2022-12-18T03:34:29;17.87;;;8.53;;
22201;SDS011;11266;51.522;6.302;2022-12-18T03:35:21;13.70;;;7.93;;
22201;SDS011;11266;51.522;6.302;2022-12-18T03:36:08;17.60;;;8.47;;
22201;SDS011;11266;51.522;6.302;2022-12-18T03:36:54;18.77;;;8.47;;
22201;SDS011;11266;51.522;6.302;2022-12-18T03:37:40;14.73;;;8.73;;
22201;SDS011;11266;51.522;6.302;2022-12-18T03:38:26;18.70;;;8.47;;
22201;SDS011;11266;51.522;6.302;2022-12-18T03:39:12;18.67;;;9.93;;
22201;SDS011;11266;51.522;6.302;2022-12-18T03:39:58;16.80;;;9.73;;
22201;SDS011;11266;51.522;6.302;2022-12-18T03:40:47;19.47;;;10.33;;
22201;SDS011;11266;51.522;6.302;2022-12-18T03:42:48;16.37;;;9.13;;
22201;SDS011;11266;51.522;6.302;2022-12-18T03:44:26;18.07;;;9.57;;
22201;SDS011;11266;51.522;6.302;2022-12-18T03:45:22;16.37;;;8.77;;
22201;SDS011;11266;51.522;6.302;2022-12-18T03:46:17;20.10;;;9.70;;
22201;SDS011;11266;51.522;6.302;2022-12-18T03:47:06;16.30;;;8.83;;
22201;SDS011;11266;51.522;6.302;2022-12-18T03:48:43;16.90;;;8.73;;
22201;SDS011;11266;51.522;6.302;2022-12-18T03:49:33;15.20;;;8.67;;
22201;SDS011;11266;51.522;6.302;2022-12-18T03:50:22;16.80;;;9.17;;
22201;SDS011;11266;51.522;6.302;2022-12-18T03:51:21;15.97;;;8.73;;
22201;SDS011;11266;51.522;6.302;2022-12-18T03:52:11;17.73;;;9.00;;
22201;SDS011;11266;51.522;6.302;2022-12-18T03:53:59;16.17;;;9.30;;
22201;SDS011;11266;51.522;6.302;2022-12-18T03:54:46;17.70;;;9.23;;
22201;SDS011;11266;51.522;6.302;2022-12-18T03:55:32;18.07;;;9.70;;
22201;SDS011;11266;51.522;6.302;2022-12-18T03:56:22;18.03;;;9.40;;
22201;SDS011;11266;51.522;6.302;2022-12-18T03:57:10;17.80;;;9.20;;
22201;SDS011;11266;51.522;6.302;2022-12-18T03:57:58;19.37;;;9.23;;
22201;SDS011;11266;51.522;6.302;2022-12-18T03:58:45;17.80;;;9.40;;
22201;SDS011;11266;51.522;6.302;2022-12-18T03:59:31;17.87;;;9.17;;
22201;SDS011;11266;51.522;6.302;2022-12-18T04:00:18;17.43;;;8.90;;
22201;SDS011;11266;51.522;6.302;2022-12-18T04:01:08;15.60;;;8.27;;
22201;SDS011;11266;51.522;6.302;2022-12-18T04:01:55;18.57;;;9.63;;
22201;SDS011;11266;51.522;6.302;2022-12-18T04:02:44;19.67;;;10.03;;
22201;SDS011;11266;51.522;6.302;2022-12-18T04:03:31;16.30;;;8.40;;
22201;SDS011;11266;51.522;6.302;2022-12-18T04:04:20;18.57;;;10.17;;
22201;SDS011;11266;51.522;6.302;2022-12-18T04:05:07;19.13;;;9.77;;
22201;SDS011;11266;51.522;6.302;2022-12-18T04:05:54;17.27;;;9.67;;
22201;SDS011;11266;51.522;6.302;2022-12-18T04:06:43;17.17;;;9.37;;
22201;SDS011;11266;51.522;6.302;2022-12-18T04:07:31;14.53;;;8.67;;
22201;SDS011;11266;51.522;6.302;2022-12-18T04:08:18;19.47;;;9.73;;
22201;SDS011;11266;51.522;6.302;2022-12-18T04:09:04;18.10;;;9.40;;
22201;SDS011;11266;51.522;6.302;2022-12-18T04:09:50;18.53;;;9.80;;
22201;SDS011;11266;51.522;6.302;2022-12-18T04:10:39;16.93;;;9.13;;
22201;SDS011;11266;51.522;6.302;2022-12-18T04:11:25;16.13;;;9.10;;
22201;SDS011;11266;51.522;6.302;2022-12-18T04:12:11;15.30;;;8.57;;
22201;SDS011;11266;51.522;6.302;2022-12-18T04:12:57;15.07;;;8.83;;
22201;SDS011;11266;51.522;6.302;2022-12-18T04:13:45;16.17;;;9.00;;
22201;SDS011;11266;51.522;6.302;2022-12-18T04:14:31;17.07;;;9.23;;
22201;SDS011;11266;51.522;6.302;2022-12-18T04:15:20;17.27;;;9.60;;
22201;SDS011;11266;51.522;6.302;2022-12-18T04:16:06;16.23;;;8.97;;
22201;SDS011;11266;51.522;6.302;2022-12-18T04:16:52;20.83;;;9.87;;
22201;SDS011;11266;51.522;6.302;2022-12-18T04:17:38;18.75;;;9.27;;
22201;SDS011;11266;51.522;6.302;2022-12-18T04:18:25;16.83;;;9.47;;
22201;SDS011;11266;51.522;6.302;2022-12-18T04:19:11;15.07;;;8.60;;
22201;SDS011;11266;51.522;6.302;2022-12-18T04:19:57;17.97;;;9.07;;
22201;SDS011;11266;51.522;6.302;2022-12-18T04:20:43;16.57;;;9.17;;
22201;SDS011;11266;51.522;6.302;2022-12-18T04:21:29;17.13;;;9.53;;
22201;SDS011;11266;51.522;6.302;2022-12-18T04:22:15;20.27;;;10.20;;
22201;SDS011;11266;51.522;6.302;2022-12-18T04:23:01;16.03;;;9.10;;
22201;SDS011;11266;51.522;6.302;2022-12-18T04:23:47;16.00;;;9.00;;
22201;SDS011;11266;51.522;6.302;2022-12-18T04:24:33;18.10;;;9.13;;
22201;SDS011;11266;51.522;6.302;2022-12-18T04:25:19;18.67;;;9.33;;
22201;SDS011;11266;51.522;6.302;2022-12-18T04:26:05;17.37;;;8.87;;
22201;SDS011;11266;51.522;6.302;2022-12-18T04:26:51;17.33;;;9.60;;
22201;SDS011;11266;51.522;6.302;2022-12-18T04:27:37;14.47;;;8.87;;
22201;SDS011;11266;51.522;6.302;2022-12-18T04:28:23;18.20;;;9.40;;
22201;SDS011;11266;51.522;6.302;2022-12-18T04:29:09;16.63;;;9.23;;
22201;SDS011;11266;51.522;6.302;2022-12-18T04:29:55;17.15;;;9.75;;
22201;SDS011;11266;51.522;6.302;2022-12-18T04:30:41;17.33;;;9.70;;
22201;SDS011;11266;51.522;6.302;2022-12-18T04:31:27;17.00;;;9.27;;
22201;SDS011;11266;51.522;6.302;2022-12-18T04:32:13;18.23;;;9.32;;
22201;SDS011;11266;51.522;6.302;2022-12-18T04:32:59;15.63;;;9.40;;
22201;SDS011;11266;51.522;6.302;2022-12-18T04:33:45;16.77;;;9.00;;
22201;SDS011;11266;51.522;6.302;2022-12-18T04:34:31;16.43;;;8.73;;
22201;SDS011;11266;51.522;6.302;2022-12-18T04:35:17;17.23;;;9.70;;
22201;SDS011;11266;51.522;6.302;2022-12-18T04:36:03;15.67;;;8.57;;
22201;SDS011;11266;51.522;6.302;2022-12-18T04:36:49;16.33;;;8.60;;
22201;SDS011;11266;51.522;6.302;2022-12-18T04:37:36;17.45;;;9.35;;
22201;SDS011;11266;51.522;6.302;2022-12-18T04:38:22;15.40;;;9.25;;
22201;SDS011;11266;51.522;6.302;2022-12-18T04:39:08;16.77;;;8.83;;
22201;SDS011;11266;51.522;6.302;2022-12-18T04:39:54;18.27;;;9.53;;
22201;SDS011;11266;51.522;6.302;2022-12-18T04:40:40;15.37;;;8.90;;
22201;SDS011;11266;51.522;6.302;2022-12-18T04:41:26;16.63;;;9.07;;
22201;SDS011;11266;51.522;6.302;2022-12-18T04:42:12;17.20;;;9.33;;
22201;SDS011;11266;51.522;6.302;2022-12-18T04:42:58;16.73;;;9.17;;
22201;SDS011;11266;51.522;6.302;2022-12-18T04:43:44;16.07;;;8.87;;
22201;SDS011;11266;51.522;6.302;2022-12-18T04:44:30;15.70;;;9.07;;
22201;SDS011;11266;51.522;6.302;2022-12-18T04:45:16;18.60;;;9.57;;
22201;SDS011;11266;51.522;6.302;2022-12-18T04:46:03;17.30;;;9.17;;
22201;SDS011;11266;51.522;6.302;2022-12-18T04:46:50;17.90;;;9.40;;
22201;SDS011;11266;51.522;6.302;2022-12-18T04:47:36;15.00;;;8.23;;
22201;SDS011;11266;51.522;6.302;2022-12-18T04:48:24;25.40;;;9.10;;
22201;SDS011;11266;51.522;6.302;2022-12-18T04:49:10;17.60;;;8.50;;
22201;SDS011;11266;51.522;6.302;2022-12-18T04:49:58;16.42;;;8.68;;
22201;SDS011;11266;51.522;6.302;2022-12-18T04:50:44;17.05;;;8.95;;
22201;SDS011;11266;51.522;6.302;2022-12-18T04:51:30;17.47;;;9.23;;
22201;SDS011;11266;51.522;6.302;2022-12-18T04:52:16;17.77;;;9.70;;
22201;SDS011;11266;51.522;6.302;2022-12-18T04:53:02;19.00;;;9.13;;
22201;SDS011;11266;51.522;6.302;2022-12-18T04:53:48;14.95;;;8.82;;
22201;SDS011;11266;51.522;6.302;2022-12-18T04:54:37;18.15;;;9.43;;
22201;SDS011;11266;51.522;6.302;2022-12-18T04:55:26;18.03;;;9.07;;
22201;SDS011;11266;51.522;6.302;2022-12-18T04:56:13;17.43;;;9.07;;
22201;SDS011;11266;51.522;6.302;2022-12-18T04:56:59;17.13;;;8.68;;
22201;SDS011;11266;51.522;6.302;2022-12-18T04:57:45;17.90;;;8.60;;
22201;SDS011;11266;51.522;6.302;2022-12-18T04:58:31;18.37;;;8.77;;
22201;SDS011;11266;51.522;6.302;2022-12-18T04:59:17;15.48;;;8.63;;
22201;SDS011;11266;51.522;6.302;2022-12-18T05:00:04;17.10;;;9.13;;
22201;SDS011;11266;51.522;6.302;2022-12-18T05:00:51;14.93;;;8.80;;
22201;SDS011;11266;51.522;6.302;2022-12-18T05:01:37;16.90;;;8.77;;
22201;SDS011;11266;51.522;6.302;2022-12-18T05:02:23;16.53;;;9.07;;
22201;SDS011;11266;51.522;6.302;2022-12-18T05:03:09;16.20;;;9.13;;
22201;SDS011;11266;51.522;6.302;2022-12-18T05:03:55;18.53;;;8.63;;
22201;SDS011;11266;51.522;6.302;2022-12-18T05:04:40;15.47;;;8.57;;
22201;SDS011;11266;51.522;6.302;2022-12-18T05:05:26;18.17;;;9.53;;
22201;SDS011;11266;51.522;6.302;2022-12-18T05:06:13;17.63;;;9.70;;
22201;SDS011;11266;51.522;6.302;2022-12-18T05:06:59;16.10;;;8.03;;
22201;SDS011;11266;51.522;6.302;2022-12-18T05:07:45;16.73;;;9.07;;
22201;SDS011;11266;51.522;6.302;2022-12-18T05:08:31;15.02;;;8.52;;
22201;SDS011;11266;51.522;6.302;2022-12-18T05:09:17;15.82;;;8.90;;
22201;SDS011;11266;51.522;6.302;2022-12-18T05:10:06;15.73;;;9.40;;
22201;SDS011;11266;51.522;6.302;2022-12-18T05:11:06;16.10;;;8.50;;
22201;SDS011;11266;51.522;6.302;2022-12-18T05:11:52;15.40;;;8.87;;
22201;SDS011;11266;51.522;6.302;2022-12-18T05:12:38;15.27;;;8.48;;